Time;durP1;ratioP1;P1;durP2;ratioP2;P2;SDS_P1;SDS_P2;PMS_P1;PMS_P2;Temp;Humidity;BMP_temperature;BMP_pressure;BME280_temperature;BME280_humidity;BME280_pressure;Samples;Min_cycle;Max_cycle;Signal;HPM_P1;HPM_P2
2021/11/11 00:00:09;;;;;;;24.70;13.63;;;0.70;99.90;;;1.51;100.00;101348.59;5041734;28;20027;-84
2021/11/11 00:02:35;;;;;;;25.38;12.32;;;0.70;99.90;;;1.47;100.00;101352.19;5041081;28;20025;-82
2021/11/11 00:05:01;;;;;;;28.40;14.48;;;0.70;99.90;;;1.45;100.00;101357.13;5041918;28;20027;-84
2021/11/11 00:07:27;;;;;;;28.55;14.52;;;0.70;99.90;;;1.44;100.00;101363.78;5058794;28;20024;-84
2021/11/11 00:09:53;;;;;;;27.65;13.45;;;0.70;99.90;;;1.50;100.00;101362.66;5041147;28;20025;-82
2021/11/11 00:12:19;;;;;;;28.25;15.18;;;0.70;99.90;;;1.56;100.00;101367.03;5040990;28;20036;-82
2021/11/11 00:14:46;;;;;;;29.30;14.02;;;0.80;99.90;;;1.58;100.00;101371.13;5041096;28;20128;-83
2021/11/11 00:17:12;;;;;;;25.67;15.20;;;0.80;99.90;;;1.63;100.00;101377.75;5041589;28;20032;-85
2021/11/11 00:19:39;;;;;;;32.53;14.98;;;0.90;99.90;;;1.61;100.00;101369.75;5041199;28;20024;-83
2021/11/11 00:22:05;;;;;;;30.48;14.02;;;0.90;99.90;;;1.59;100.00;101372.78;5041624;28;20131;-84
2021/11/11 00:24:30;;;;;;;29.85;14.80;;;0.80;99.90;;;1.56;100.00;101369.78;5040812;28;20492;-82
2021/11/11 00:26:56;;;;;;;28.85;15.02;;;0.80;99.90;;;1.55;100.00;101355.19;5058507;28;20382;-82
2021/11/11 00:29:22;;;;;;;33.88;16.17;;;0.80;99.90;;;1.56;100.00;101351.34;5040378;28;20123;-83
2021/11/11 00:31:48;;;;;;;30.42;16.30;;;0.90;99.90;;;1.69;100.00;101354.59;5040596;28;20033;-83
2021/11/11 00:34:14;;;;;;;32.85;15.85;;;0.90;99.90;;;1.71;100.00;101350.44;5040429;28;20040;-83
2021/11/11 00:36:41;;;;;;;33.40;16.50;;;1.00;99.90;;;1.72;100.00;101343.81;5039883;28;20053;-84
2021/11/11 00:39:07;;;;;;;30.77;16.27;;;1.00;99.90;;;1.73;100.00;101347.41;5058519;28;20031;-84
2021/11/11 00:41:33;;;;;;;33.65;16.13;;;1.00;99.90;;;1.69;100.00;101332.56;5040236;28;20480;-82
2021/11/11 00:43:59;;;;;;;43.40;19.65;;;1.00;99.90;;;1.74;100.00;101327.00;5040596;28;20032;-82
2021/11/11 00:46:25;;;;;;;44.90;19.70;;;1.10;99.90;;;1.90;100.00;101323.88;5040464;28;20025;-83
2021/11/11 00:48:51;;;;;;;41.83;18.88;;;1.20;99.90;;;2.00;100.00;101323.00;5041535;28;20039;-84
2021/11/11 00:51:18;;;;;;;35.95;18.15;;;1.30;99.90;;;2.00;100.00;101329.34;5040200;28;20481;-83
2021/11/11 00:53:44;;;;;;;35.05;17.75;;;1.30;99.90;;;1.97;100.00;101312.56;5058503;28;20392;-83
2021/11/11 00:56:12;;;;;;;41.20;18.75;;;1.20;99.90;;;1.89;100.00;101315.94;5040600;28;20102;-84
2021/11/11 00:58:38;;;;;;;40.42;17.85;;;1.20;99.90;;;1.88;100.00;101322.53;5040582;28;20362;-82
2021/11/11 01:01:03;;;;;;;38.00;18.63;;;1.20;99.90;;;1.86;100.00;101319.25;5040229;28;20079;-84
2021/11/11 01:03:39;;;;;;;37.80;17.20;;;1.20;99.90;;;1.93;100.00;101319.75;5056870;28;20025;-81
2021/11/11 01:06:10;;;;;;;37.78;17.15;;;1.20;99.90;;;1.96;100.00;101324.69;5040117;28;20025;-83
2021/11/11 01:08:38;;;;;;;30.02;16.20;;;1.20;99.90;;;1.96;100.00;101325.50;5054057;28;20064;-84
2021/11/11 01:11:05;;;;;;;27.95;15.50;;;1.20;99.90;;;1.93;100.00;101316.97;5020311;28;20040;-81
2021/11/11 01:13:34;;;;;;;29.75;16.58;;;1.20;99.90;;;1.83;100.00;101317.06;5020588;28;20505;-83
2021/11/11 01:16:02;;;;;;;27.67;14.52;;;1.10;99.90;;;1.76;100.00;101325.63;5038397;28;20029;-85
2021/11/11 01:18:29;;;;;;;28.42;14.65;;;1.00;99.90;;;1.69;100.00;101325.13;5020095;28;20029;-84
2021/11/11 01:20:55;;;;;;;27.27;14.63;;;0.90;99.90;;;1.63;100.00;101311.66;5020079;28;20474;-83
2021/11/11 01:23:22;;;;;;;32.83;14.77;;;0.90;99.90;;;1.58;100.00;101310.56;5020231;28;20037;-84
2021/11/11 01:25:48;;;;;;;27.35;13.80;;;0.90;99.90;;;1.51;100.00;101314.72;5020552;28;20033;-86
2021/11/11 01:28:15;;;;;;;24.02;14.00;;;0.80;99.90;;;1.49;100.00;101322.44;5020108;28;20460;-84
2021/11/11 01:30:44;;;;;;;33.03;14.88;;;0.70;99.90;;;1.49;100.00;101323.28;5020325;28;20044;-84
2021/11/11 01:33:14;;;;;;;27.75;14.70;;;0.70;99.90;;;1.33;100.00;101307.91;5036667;28;20029;-83
2021/11/11 01:35:40;;;;;;;27.95;13.82;;;0.60;99.90;;;1.24;100.00;101303.28;5029454;28;20444;-83
2021/11/11 01:38:06;;;;;;;32.78;14.82;;;0.50;99.90;;;1.19;100.00;101301.34;5019449;28;20118;-83
2021/11/11 01:40:33;;;;;;;24.70;13.55;;;0.50;99.90;;;1.18;100.00;101296.16;5020061;28;20036;-86
2021/11/11 01:43:05;;;;;;;24.08;12.82;;;0.40;99.90;;;1.13;100.00;101291.47;5038202;28;20483;-85
2021/11/11 01:45:43;;;;;;;26.40;13.73;;;0.40;99.90;;;1.05;100.00;101301.13;5040205;28;20048;-83
2021/11/11 01:48:17;;;;;;;30.00;13.77;;;0.30;99.90;;;1.00;100.00;101287.38;5037615;28;20037;-83
2021/11/11 01:50:46;;;;;;;30.02;15.15;;;0.30;99.90;;;0.99;100.00;101282.16;5018501;28;20155;-83
2021/11/11 01:53:16;;;;;;;28.08;15.38;;;0.30;99.90;;;0.96;100.00;101283.53;5019480;28;20397;-82
2021/11/11 01:55:46;;;;;;;26.90;13.98;;;0.30;99.90;;;1.04;100.00;101288.47;5022003;28;20132;-82
2021/11/11 01:58:16;;;;;;;26.45;14.95;;;0.30;99.90;;;1.08;100.00;101291.50;5021317;28;20036;-85
2021/11/11 02:00:52;;;;;;;31.25;15.20;;;0.30;99.90;;;1.09;100.00;101278.56;5038318;28;20048;-83
2021/11/11 02:03:19;;;;;;;30.88;14.65;;;0.30;99.90;;;1.11;100.00;101276.34;5021329;28;20021;-82
2021/11/11 02:05:45;;;;;;;25.70;13.75;;;0.40;99.90;;;1.13;100.00;101269.47;5022015;28;20041;-82
2021/11/11 02:08:14;;;;;;;26.38;13.93;;;0.40;99.90;;;1.08;100.00;101277.75;5022006;28;20057;-81
2021/11/11 02:10:42;;;;;;;29.42;14.90;;;0.30;99.90;;;1.02;100.00;101279.69;5021100;28;20029;-82
2021/11/11 02:13:10;;;;;;;32.75;16.67;;;0.30;99.90;;;0.98;100.00;101281.34;5020858;28;20040;-81
2021/11/11 02:15:38;;;;;;;30.83;15.07;;;0.30;99.90;;;0.96;100.00;101275.28;5019158;28;20421;-82
2021/11/11 02:18:25;;;;;;;31.15;16.50;;;0.30;99.90;;;1.04;100.00;101279.41;5036293;28;20025;-82
2021/11/11 02:20:50;;;;;;;32.33;15.57;;;0.30;99.90;;;1.11;100.00;101290.94;5018980;28;20107;-82
2021/11/11 02:23:19;;;;;;;30.30;14.85;;;0.40;99.90;;;1.18;100.00;101288.72;5018737;28;20029;-83
2021/11/11 02:25:47;;;;;;;42.25;15.82;;;0.40;99.90;;;1.21;100.00;101287.31;5018548;28;20122;-81
2021/11/11 02:28:18;;;;;;;34.42;16.95;;;0.40;99.90;;;1.25;100.00;101277.41;5018722;28;20033;-85
2021/11/11 02:30:51;;;;;;;33.22;15.63;;;0.50;99.90;;;1.27;100.00;101281.53;5018620;28;20033;-84
2021/11/11 02:33:24;;;;;;;37.05;15.60;;;0.50;99.90;;;1.25;100.00;101280.16;5035257;28;20144;-81
2021/11/11 02:35:54;;;;;;;26.48;14.57;;;0.50;99.90;;;1.15;100.00;101280.19;5018537;28;20033;-85
2021/11/11 02:38:22;;;;;;;29.90;14.43;;;0.40;99.90;;;1.00;100.00;101284.63;5018533;28;20030;-84
2021/11/11 02:40:49;;;;;;;33.63;14.23;;;0.30;99.90;;;0.90;100.00;101275.59;5036122;28;20060;-85
2021/11/11 02:43:17;;;;;;;28.73;14.23;;;0.20;99.90;;;0.84;100.00;101277.50;5018724;28;20059;-87
2021/11/11 02:45:49;;;;;;;34.60;16.10;;;0.10;99.90;;;0.67;100.00;101265.19;5017739;28;20025;-86
2021/11/11 02:48:20;;;;;;;31.70;16.35;;;0.10;99.90;;;0.67;100.00;101273.44;5018419;28;20473;-85
2021/11/11 02:50:50;;;;;;;33.33;15.38;;;0.00;99.90;;;0.75;100.00;101281.94;5036395;28;20033;-85
2021/11/11 02:53:17;;;;;;;37.30;16.00;;;0.00;99.90;;;0.84;100.00;101287.69;5018089;28;20030;-85
2021/11/11 02:55:45;;;;;;;30.98;15.70;;;0.10;99.90;;;0.87;100.00;101281.63;5035691;28;20025;-84
2021/11/11 02:58:11;;;;;;;26.23;15.10;;;0.10;99.90;;;0.84;100.00;101287.69;5018629;28;20071;-84
2021/11/11 03:00:48;;;;;;;27.38;14.15;;;0.10;99.90;;;0.77;100.00;101284.44;5035964;28;20086;-84
2021/11/11 03:03:14;;;;;;;34.25;14.75;;;0.10;99.90;;;0.69;100.00;101288.56;5017056;28;20116;-83
2021/11/11 03:05:40;;;;;;;34.30;15.98;;;0.00;99.90;;;0.77;100.00;101292.69;5017080;28;20468;-85
2021/11/11 03:08:09;;;;;;;30.20;15.20;;;0.00;99.90;;;0.83;100.00;101299.81;5017430;28;20029;-86
2021/11/11 03:10:41;;;;;;;32.20;17.02;;;0.10;99.90;;;0.86;100.00;101302.00;5035764;28;20037;-85
2021/11/11 03:13:11;;;;;;;28.02;15.10;;;0.10;99.90;;;0.88;100.00;101297.03;5018141;28;20041;-85
2021/11/11 03:15:39;;;;;;;35.20;15.48;;;0.10;99.90;;;0.78;100.00;101300.63;5035383;28;20035;-83
2021/11/11 03:18:05;;;;;;;25.88;13.68;;;0.00;99.90;;;0.78;100.00;101300.63;5035139;28;20041;-84
2021/11/11 03:20:33;;;;;;;26.63;14.07;;;0.00;99.90;;;0.77;100.00;101296.22;5017779;28;20060;-81
2021/11/11 03:23:01;;;;;;;27.58;14.77;;;0.00;99.90;;;0.71;100.00;101302.84;5036636;28;20075;-85
2021/11/11 03:25:35;;;;;;;36.53;16.30;;;0.00;99.90;;;0.69;100.00;101290.47;5032854;28;20033;-84
2021/11/11 03:28:03;;;;;;;37.75;20.05;;;0.00;99.90;;;0.75;100.00;101284.69;5057055;28;20091;-86
2021/11/11 03:30:30;;;;;;;35.83;17.40;;;0.10;99.90;;;0.93;100.00;101284.09;5039591;28;20059;-83
2021/11/11 03:32:58;;;;;;;44.90;20.23;;;0.20;99.90;;;1.06;100.00;101290.94;5039572;28;20044;-84
2021/11/11 03:35:25;;;;;;;40.13;19.80;;;0.20;99.90;;;1.08;100.00;101283.25;5039948;28;20055;-84
2021/11/11 03:37:58;;;;;;;32.95;17.42;;;0.30;99.90;;;1.05;100.00;101292.06;5028156;28;20080;-84
2021/11/11 03:40:30;;;;;;;36.00;16.98;;;0.30;99.90;;;1.07;100.00;101295.34;5043998;28;20107;-83
2021/11/11 03:43:00;;;;;;;36.63;18.30;;;0.30;99.90;;;1.07;100.00;101295.34;5032253;28;20082;-82
2021/11/11 03:45:31;;;;;;;32.50;15.90;;;0.30;99.90;;;0.95;100.00;101292.91;5033905;28;20105;-82
2021/11/11 03:47:57;;;;;;;43.97;20.02;;;0.20;99.90;;;0.94;100.00;101291.25;5042233;28;20055;-82
2021/11/11 03:50:24;;;;;;;40.83;19.73;;;0.30;99.90;;;1.02;100.00;101301.69;5017021;28;20412;-83
2021/11/11 03:52:54;;;;;;;32.88;17.98;;;0.30;99.90;;;1.08;100.00;101299.75;5017175;28;20497;-83
2021/11/11 03:55:23;;;;;;;34.30;18.05;;;0.30;99.90;;;1.12;100.00;101298.09;5034855;28;20034;-83
2021/11/11 03:57:54;;;;;;;35.00;17.30;;;0.40;99.90;;;1.11;100.00;101299.19;5017038;28;20489;-85
2021/11/11 04:00:23;;;;;;;31.70;16.13;;;0.40;99.90;;;1.10;100.00;101302.22;5035021;28;20063;-87
2021/11/11 04:02:51;;;;;;;31.30;14.68;;;0.40;99.90;;;1.05;100.00;101300.31;5019105;28;20049;-83
2021/11/11 04:05:17;;;;;;;30.25;16.20;;;0.30;99.90;;;1.00;100.00;101297.56;5020760;28;20436;-85
2021/11/11 04:07:44;;;;;;;33.15;17.17;;;0.20;99.90;;;1.00;100.00;101300.31;5038393;28;20465;-87
2021/11/11 04:10:12;;;;;;;35.30;16.52;;;0.20;99.90;;;1.01;100.00;101300.03;5020673;28;20133;-85
2021/11/11 04:12:38;;;;;;;28.77;15.20;;;0.20;99.90;;;0.97;100.00;101295.38;5021377;28;20060;-85
2021/11/11 04:15:07;;;;;;;32.75;14.50;;;0.20;99.90;;;0.87;100.00;101292.63;5021588;28;20227;-85
2021/11/11 04:17:33;;;;;;;34.17;15.32;;;0.10;99.90;;;0.74;100.00;101293.22;5021110;28;20033;-87
2021/11/11 04:19:59;;;;;;;24.88;13.07;;;0.00;99.90;;;0.58;100.00;101297.09;5022190;28;20033;-84
2021/11/11 04:22:25;;;;;;;28.23;15.07;;;-0.10;99.90;;;0.53;100.00;101296.00;5028678;28;20085;-81
2021/11/11 04:24:52;;;;;;;28.10;14.73;;;-0.20;99.90;;;0.53;100.00;101300.66;5037977;28;20029;-86
2021/11/11 04:27:26;;;;;;;33.88;15.98;;;-0.20;99.90;;;0.57;100.00;101304.50;5040433;28;20030;-82
2021/11/11 04:30:06;;;;;;;28.05;16.02;;;-0.20;99.90;;;0.63;100.00;101300.66;5024996;28;20036;-83
2021/11/11 04:32:32;;;;;;;34.70;15.98;;;-0.10;99.90;;;0.61;100.00;101294.59;5043530;28;20060;-85
2021/11/11 04:35:00;;;;;;;31.65;16.35;;;-0.10;99.90;;;0.61;100.00;101307.53;5022297;28;20025;-84
2021/11/11 04:43:11;;;;;;;32.47;16.25;;;-0.20;99.90;;;0.51;100.00;101311.91;5058514;28;20092;-80
2021/11/11 05:01:27;;;;;;;32.70;15.90;;;-0.30;99.90;;;0.41;100.00;101322.09;5037853;28;20040;-84
2021/11/11 05:03:53;;;;;;;32.03;16.33;;;-0.30;99.90;;;0.40;100.00;101321.28;5019658;28;20038;-83
2021/11/11 05:06:19;;;;;;;31.88;14.82;;;-0.30;99.90;;;0.35;100.00;101321.25;5019827;28;20025;-85
2021/11/11 05:08:46;;;;;;;25.02;13.77;;;-0.40;99.90;;;0.15;100.00;101321.25;5019158;28;20120;-83
2021/11/11 05:11:13;;;;;;;24.77;12.65;;;-0.50;99.90;;;-0.05;100.00;101319.31;5018820;28;20028;-84
2021/11/11 05:13:39;;;;;;;22.13;12.02;;;-0.70;99.90;;;-0.10;100.00;101323.97;5019029;28;20378;-84
2021/11/11 05:16:05;;;;;;;30.70;15.95;;;-0.80;99.90;;;-0.01;100.00;101323.16;5019684;28;20079;-84
2021/11/11 05:18:32;;;;;;;35.55;17.80;;;-0.70;99.90;;;0.13;100.00;101328.94;5020736;28;20061;-84
2021/11/11 05:20:59;;;;;;;33.75;16.23;;;-0.60;99.90;;;0.24;100.00;101327.84;5037678;28;20105;-84
2021/11/11 05:23:25;;;;;;;32.72;16.25;;;-0.50;99.90;;;0.32;100.00;101330.06;5037606;28;20040;-82
2021/11/11 05:25:53;;;;;;;41.72;18.00;;;-0.50;99.90;;;0.38;100.00;101337.22;5019193;28;20072;-83
2021/11/11 05:28:20;;;;;;;43.53;19.75;;;-0.40;99.90;;;0.41;100.00;101341.34;5036823;28;20025;-82
2021/11/11 05:30:46;;;;;;;36.53;17.35;;;-0.30;99.90;;;0.41;100.00;101339.44;5019486;28;20026;-84
2021/11/11 05:33:13;;;;;;;31.40;16.75;;;-0.30;99.90;;;0.39;100.00;101341.59;5037477;28;20029;-84
2021/11/11 05:35:39;;;;;;;35.58;17.85;;;-0.30;99.90;;;0.39;100.00;101336.09;5036910;28;20033;-83
2021/11/11 05:38:06;;;;;;;30.45;16.05;;;-0.30;99.90;;;0.39;100.00;101333.34;5019041;28;20064;-84
2021/11/11 05:40:33;;;;;;;37.33;17.40;;;-0.40;99.90;;;0.40;100.00;101340.50;5036881;28;20049;-82
2021/11/11 05:43:00;;;;;;;33.40;17.27;;;-0.30;99.90;;;0.40;100.00;101334.19;5019337;28;20025;-85
2021/11/11 05:45:27;;;;;;;36.40;17.65;;;-0.30;99.90;;;0.43;100.00;101331.72;5020532;28;20481;-85
2021/11/11 05:47:53;;;;;;;31.55;16.95;;;-0.30;99.90;;;0.43;100.00;101328.97;5020101;28;20560;-87
2021/11/11 05:50:21;;;;;;;36.72;17.45;;;-0.30;99.90;;;0.43;100.00;101322.66;5021328;28;20064;-85
2021/11/11 05:52:48;;;;;;;40.67;18.55;;;-0.30;99.90;;;0.46;100.00;101319.34;5020037;28;20034;-85
2021/11/11 05:55:15;;;;;;;37.55;17.90;;;-0.20;99.90;;;0.46;100.00;101325.69;5047432;28;20041;-84
2021/11/11 05:57:41;;;;;;;36.35;17.83;;;-0.20;99.90;;;0.45;100.00;101317.72;5039416;28;20033;-84
2021/11/11 06:00:14;;;;;;;42.50;19.35;;;-0.20;99.90;;;0.44;100.00;101319.63;5027568;28;20049;-85
2021/11/11 06:02:43;;;;;;;34.40;17.83;;;-0.20;99.90;;;0.52;100.00;101327.31;5020327;28;20037;-85
2021/11/11 06:05:10;;;;;;;37.90;19.23;;;-0.20;99.90;;;0.53;100.00;101323.47;5019286;28;20401;-85
2021/11/11 06:07:39;;;;;;;46.22;20.95;;;-0.10;99.90;;;0.61;100.00;101332.28;5018466;28;20052;-84
2021/11/11 06:10:09;;;;;;;50.38;20.50;;;0.00;99.90;;;0.66;100.00;101330.34;5018875;28;20029;-84
2021/11/11 06:12:36;;;;;;;50.92;23.00;;;0.00;99.90;;;0.72;100.00;101333.91;5018601;28;20036;-83
2021/11/11 06:15:03;;;;;;;48.60;22.17;;;0.10;99.90;;;0.86;100.00;101335.00;5036221;28;20042;-85
2021/11/11 06:17:29;;;;;;;44.95;22.13;;;0.20;99.90;;;0.96;100.00;101337.75;5035546;28;20035;-86
2021/11/11 06:19:56;;;;;;;44.05;21.77;;;0.20;99.90;;;0.97;100.00;101340.19;5018497;28;20029;-86
2021/11/11 06:22:23;;;;;;;35.45;18.38;;;0.20;99.90;;;0.97;100.00;101347.63;5018572;28;20029;-85
2021/11/11 06:24:51;;;;;;;42.88;19.58;;;0.20;99.90;;;0.94;100.00;101346.25;5018906;28;20473;-84
2021/11/11 06:27:18;;;;;;;42.83;18.63;;;0.20;99.90;;;0.95;100.00;101349.84;5018590;28;20128;-84
2021/11/11 06:29:44;;;;;;;36.53;18.73;;;0.20;99.90;;;0.90;100.00;101358.91;5018626;28;20041;-85
2021/11/11 06:32:11;;;;;;;39.63;18.73;;;0.10;99.90;;;0.85;100.00;101353.44;5021924;28;20401;-83
2021/11/11 06:34:37;;;;;;;37.53;19.08;;;0.10;99.90;;;0.83;100.00;101363.91;5020587;28;20029;-84
2021/11/11 06:37:07;;;;;;;40.42;18.92;;;0.10;99.90;;;0.86;100.00;101362.50;5021701;28;20060;-86
2021/11/11 06:39:34;;;;;;;39.55;18.17;;;0.10;99.90;;;0.89;100.00;101370.19;5020334;28;20030;-84
2021/11/11 06:42:00;;;;;;;41.65;20.08;;;0.10;99.90;;;0.86;100.00;101366.09;5020056;28;20026;-83
2021/11/11 06:44:25;;;;;;;38.13;19.02;;;0.10;99.90;;;0.93;100.00;101371.31;5020179;28;20333;-85
2021/11/11 06:46:52;;;;;;;44.40;19.77;;;0.10;99.90;;;0.96;100.00;101377.06;5038700;28;20033;-86
2021/11/11 06:49:19;;;;;;;38.25;18.95;;;0.20;99.90;;;0.98;100.00;101372.13;5037247;28;20029;-87
2021/11/11 06:51:45;;;;;;;42.47;19.58;;;0.20;99.90;;;0.98;100.00;101376.78;5038175;28;20048;-83
2021/11/11 06:54:12;;;;;;;41.90;18.50;;;0.20;99.90;;;0.96;100.00;101374.31;5020352;28;20095;-87
2021/11/11 06:56:38;;;;;;;39.83;18.65;;;0.20;99.90;;;1.00;100.00;101385.56;5019345;28;20040;-85
2021/11/11 06:59:06;;;;;;;38.33;19.42;;;0.20;99.90;;;1.00;100.00;101389.16;5020064;28;20029;-86
2021/11/11 07:01:33;;;;;;;38.50;18.63;;;0.20;99.90;;;1.00;100.00;101386.41;5036510;28;20535;-85
2021/11/11 07:04:02;;;;;;;40.55;18.70;;;0.20;99.90;;;1.05;100.00;101399.34;5019551;28;20370;-87
2021/11/11 07:06:28;;;;;;;42.88;19.10;;;0.30;99.90;;;1.06;100.00;101395.47;5020636;28;20034;-86
2021/11/11 07:08:54;;;;;;;40.78;18.00;;;0.20;99.90;;;1.10;100.00;101399.31;5021141;28;20405;-84
2021/11/11 07:11:29;;;;;;;39.40;18.52;;;0.30;99.90;;;1.17;100.00;101401.78;5019608;28;20030;-87
2021/11/11 07:13:56;;;;;;;37.58;19.10;;;0.30;99.90;;;1.23;100.00;101412.53;5020021;28;20075;-84
2021/11/11 07:16:22;;;;;;;33.55;17.00;;;0.40;99.90;;;1.33;100.00;101418.00;5019054;28;20555;-84
2021/11/11 07:18:53;;;;;;;33.42;17.27;;;0.40;99.90;;;1.49;100.00;101419.63;5020836;28;20093;-84
2021/11/11 07:21:52;;;;;;;39.53;18.52;;;0.60;99.90;;;1.70;100.00;101412.16;5018983;28;20469;-85
2021/11/11 07:24:23;;;;;;;36.45;17.73;;;0.70;99.90;;;1.86;100.00;101410.94;5033916;28;20029;-86
2021/11/11 07:26:49;;;;;;;33.33;17.13;;;0.90;99.90;;;2.02;100.00;101408.97;5018233;28;20021;-86
2021/11/11 07:29:15;;;;;;;35.35;18.17;;;1.00;99.90;;;2.12;100.00;101408.91;5018684;28;20029;-86
2021/11/11 07:31:43;;;;;;;31.08;16.35;;;1.10;99.90;;;2.18;100.00;101418.00;5019336;28;20040;-87
2021/11/11 07:34:10;;;;;;;32.97;17.77;;;1.20;99.90;;;2.22;100.00;101419.03;5019160;28;20109;-87
2021/11/11 07:36:40;;;;;;;36.80;16.42;;;1.20;99.90;;;2.26;100.00;101418.22;5019332;28;20053;-85
2021/11/11 07:39:19;;;;;;;32.05;16.73;;;1.30;99.90;;;2.35;100.00;101418.44;5006175;28;20029;-87
2021/11/11 07:41:46;;;;;;;40.28;20.33;;;1.30;99.90;;;2.43;100.00;101421.44;5023201;28;20548;-86
2021/11/11 07:44:13;;;;;;;37.88;18.00;;;1.50;99.90;;;2.55;100.00;101421.06;5022816;28;20044;-86
2021/11/11 07:46:42;;;;;;;31.67;18.08;;;1.50;99.90;;;2.60;100.00;101418.28;5021434;28;20493;-87
2021/11/11 07:49:10;;;;;;;36.95;18.85;;;1.60;99.90;;;2.59;100.00;101414.69;5038922;28;20061;-85
2021/11/11 07:51:36;;;;;;;33.13;16.42;;;1.60;99.90;;;2.63;100.00;101418.50;5021627;28;20030;-85
2021/11/11 07:54:03;;;;;;;37.42;18.95;;;1.70;99.90;;;2.64;100.00;101422.94;5021261;28;20036;-86
2021/11/11 07:56:31;;;;;;;36.50;18.95;;;1.70;99.90;;;2.64;100.00;101420.16;5021112;28;20029;-84
2021/11/11 07:58:58;;;;;;;38.30;20.20;;;1.70;99.90;;;2.69;100.00;101424.00;5021504;28;20025;-84
2021/11/11 08:01:24;;;;;;;35.40;17.88;;;1.80;99.90;;;2.73;100.00;101416.81;5022184;28;20037;-84
2021/11/11 08:04:01;;;;;;;36.25;19.63;;;1.90;99.90;;;2.70;100.00;101414.63;5035011;28;20021;-84
2021/11/11 08:06:45;;;;;;;39.97;18.63;;;2.00;99.90;;;2.78;100.00;101417.59;5032572;28;20041;-85
2021/11/11 08:09:17;;;;;;;30.42;18.02;;;2.00;99.90;;;3.02;100.00;101429.53;5031442;28;20028;-84
2021/11/11 08:11:52;;;;;;;36.83;18.95;;;2.10;99.90;;;3.12;100.00;101412.06;5040067;28;20028;-83
2021/11/11 08:14:18;;;;;;;33.00;17.10;;;2.30;99.90;;;3.38;100.00;101413.44;5057658;28;20037;-84
2021/11/11 08:16:45;;;;;;;36.97;18.40;;;2.50;99.90;;;3.69;100.00;101417.53;5042273;28;20056;-84
2021/11/11 08:19:10;;;;;;;33.55;18.83;;;2.60;99.90;;;3.99;100.00;101412.75;5042413;28;20025;-84
2021/11/11 08:21:36;;;;;;;36.03;18.58;;;2.90;99.90;;;4.22;100.00;101415.50;5041232;28;20067;-86
2021/11/11 08:24:03;;;;;;;32.15;17.58;;;3.10;99.90;;;4.45;100.00;101413.78;5041513;28;20025;-86
2021/11/11 08:26:28;;;;;;;34.30;17.35;;;3.30;99.90;;;4.78;100.00;101411.91;5041209;28;20040;-86
2021/11/11 08:28:54;;;;;;;33.85;18.13;;;3.60;99.90;;;5.00;100.00;101412.09;5041760;28;20099;-87
2021/11/11 08:31:20;;;;;;;33.60;18.05;;;3.80;99.90;;;5.12;99.85;101417.16;5041102;28;20496;-87
2021/11/11 08:33:46;;;;;;;35.53;18.45;;;4.00;99.90;;;5.31;98.19;101412.38;5058735;28;20032;-84
2021/11/11 08:36:12;;;;;;;34.67;17.33;;;4.10;99.90;;;5.28;97.61;101416.59;5040304;28;20052;-84
2021/11/11 08:38:38;;;;;;;31.48;16.98;;;4.20;99.90;;;5.42;97.52;101413.03;5041090;28;20029;-85
2021/11/11 08:41:04;;;;;;;27.50;16.05;;;4.30;99.90;;;5.59;96.84;101416.84;5058734;28;20028;-84
2021/11/11 08:43:30;;;;;;;29.33;16.88;;;4.50;99.90;;;5.83;95.62;101411.94;5041636;28;20082;-86
2021/11/11 08:45:57;;;;;;;34.47;17.48;;;4.70;99.90;;;5.69;94.31;101418.59;5042140;28;20025;-84
2021/11/11 08:48:23;;;;;;;30.65;16.65;;;4.70;99.90;;;5.81;94.77;101416.94;5041945;28;20029;-87
2021/11/11 08:50:49;;;;;;;29.42;16.13;;;4.80;99.90;;;5.97;94.93;101423.06;5040639;28;20036;-86
2021/11/11 08:53:17;;;;;;;31.30;16.65;;;4.90;99.90;;;6.27;92.83;101422.41;5040616;28;20035;-85
2021/11/11 08:55:44;;;;;;;27.92;15.55;;;5.20;99.90;;;6.47;91.35;101429.47;5040798;28;20036;-87
2021/11/11 08:58:12;;;;;;;28.67;16.35;;;5.30;99.90;;;6.61;89.92;101421.94;5040783;28;20033;-85
2021/11/11 09:00:50;;;;;;;27.88;15.27;;;5.50;99.90;;;6.92;91.47;101423.97;5059172;28;20025;-85
2021/11/11 09:03:18;;;;;;;34.30;16.88;;;5.70;99.90;;;6.92;89.74;101422.00;5040908;28;20025;-83
2021/11/11 09:05:47;;;;;;;27.80;14.77;;;5.80;99.90;;;7.48;89.76;101417.81;5040841;28;20088;-86
2021/11/11 09:08:14;;;;;;;26.42;15.35;;;6.10;99.90;;;7.79;87.84;101422.22;5039763;28;20036;-85
2021/11/11 09:10:44;;;;;;;28.70;15.55;;;6.40;99.90;;;8.09;86.50;101416.91;5020902;28;20083;-87
2021/11/11 09:13:10;;;;;;;34.22;16.27;;;6.70;99.90;;;8.17;85.59;101410.53;5021433;28;20079;-89
2021/11/11 09:15:37;;;;;;;35.47;16.23;;;6.90;99.90;;;8.44;83.01;101413.91;5021451;28;20124;-86
2021/11/11 09:18:07;;;;;;;26.70;16.38;;;7.10;99.90;;;8.79;84.69;101422.28;5040088;28;20040;-85
2021/11/11 09:20:39;;;;;;;30.08;16.17;;;7.30;99.90;;;8.86;83.17;101423.44;5024421;28;20471;-87
2021/11/11 09:23:08;;;;;;;30.80;15.88;;;7.50;99.90;;;9.22;83.47;101419.47;5024005;28;20033;-84
2021/11/11 09:25:35;;;;;;;25.98;16.27;;;7.70;99.90;;;9.24;81.90;101423.56;5021340;28;20116;-86
2021/11/11 09:28:03;;;;;;;27.58;14.30;;;7.90;99.90;;;9.45;81.17;101418.94;5021055;28;20033;-83
2021/11/11 09:30:38;;;;;;;28.50;15.48;;;8.10;99.90;;;9.67;79.55;101417.88;5021721;28;20084;-87
2021/11/11 09:33:07;;;;;;;31.30;16.10;;;8.20;99.90;;;9.60;79.68;101409.19;5021806;28;20258;-85
2021/11/11 09:35:33;;;;;;;28.30;15.50;;;8.30;99.90;;;9.36;80.17;101398.63;5021037;28;20493;-86
2021/11/11 09:38:00;;;;;;;26.33;15.68;;;8.20;99.90;;;9.52;80.85;101407.28;5039178;28;20044;-84
2021/11/11 09:40:29;;;;;;;27.25;15.95;;;8.30;99.90;;;9.75;80.48;101410.63;5023521;28;20055;-86
2021/11/11 09:42:57;;;;;;;27.33;16.38;;;8.40;99.90;;;9.46;79.50;101408.59;5025569;28;20413;-86
2021/11/11 09:45:33;;;;;;;24.75;15.85;;;8.50;99.90;;;9.73;80.14;101399.00;5025803;28;20036;-84
2021/11/11 09:48:02;;;;;;;26.05;15.85;;;8.50;99.90;;;9.91;79.81;101401.38;5025232;28;20033;-88
2021/11/11 09:50:31;;;;;;;28.05;15.35;;;8.70;99.90;;;10.27;78.42;101406.47;5054661;28;20060;-85
2021/11/11 09:53:05;;;;;;;26.30;15.43;;;8.90;99.90;;;10.58;77.67;101409.69;5040726;28;20026;-82
2021/11/11 09:58:35;;;;;;;31.02;15.65;;;9.20;99.90;;;10.67;77.33;101415.22;5040494;28;20149;-84
2021/11/11 10:01:20;;;;;;;31.75;16.92;;;9.30;99.90;;;10.63;76.81;101422.63;5039939;28;20036;-86
2021/11/11 10:03:51;;;;;;;29.75;17.23;;;9.40;99.90;;;10.68;77.83;101413.25;5046762;28;20083;-82
2021/11/11 10:06:24;;;;;;;31.33;17.20;;;9.50;99.90;;;10.57;78.28;101415.63;5035519;28;20096;-88
2021/11/11 10:08:57;;;;;;;30.90;16.55;;;9.50;99.90;;;10.80;78.17;101421.69;5040904;28;20036;-85
2021/11/11 10:11:49;;;;;;;27.30;16.02;;;9.70;99.90;;;11.09;75.93;101410.41;5060380;28;20021;-84
2021/11/11 10:14:23;;;;;;;26.98;16.52;;;9.80;99.90;;;11.57;76.77;101416.16;5060232;28;20032;-83
2021/11/11 10:17:01;;;;;;;33.70;15.82;;;10.20;99.90;;;11.61;74.92;101422.72;5049977;28;20476;-86
2021/11/11 10:19:33;;;;;;;27.13;16.27;;;10.30;99.90;;;11.85;73.61;101426.72;5039920;28;20032;-84
2021/11/11 10:22:25;;;;;;;29.10;15.65;;;10.40;99.90;;;11.99;74.07;101418.81;5039710;28;20122;-85
2021/11/11 10:25:01;;;;;;;29.60;16.25;;;10.60;99.90;;;12.40;72.60;101420.56;5057147;28;20124;-85
2021/11/11 10:27:29;;;;;;;31.30;18.00;;;10.90;99.90;;;12.48;71.12;101414.84;5039649;28;20325;-85
2021/11/11 10:30:24;;;;;;;29.75;16.45;;;11.00;99.90;;;12.79;70.88;101410.56;5040376;28;20440;-84
2021/11/11 10:33:13;;;;;;;26.63;16.08;;;11.10;99.90;;;12.82;69.92;101415.44;5041772;28;20370;-82
2021/11/11 10:35:44;;;;;;;27.70;16.70;;;11.20;99.90;;;12.84;69.32;101411.16;5041127;28;20040;-84